Aérodrome :
LOGIN :

S'inscrire | Disclaimer

   EN    FR    IT 

 










Légende :    VFR   VFR Marginal   IFR   IFR Intensif   IFR Très Intensif
Visi : 
Plafond : 
>= 8 km
>= 3000ft
5 à 8 km
1000 à 3000 ft
1500m à 5 km
500 à 1000 ft
800 à 1500m
200 à 500 ft
< 800m
< 200 ft
Symboles :   Orages  Brouillard  Fortes neiges  Fortes précipitations  Vent > 20 kt
SIGMETs :   Divers  Orages  Givrage  Turbulence  Onde Orograph.  Cendres Volcan.







- Altitude de l'aérodrome : 146 ft
- Code IATA : RKE


EKRK - Roskilde Tune

DERNIER METAR :
  • 251950Z AUTO 26004KT 9999NDV -SHRA FEW018/// BKN031/// BKN065/// 02/01 Q1004

METARs EXPIRÉS :
  • 251920Z AUTO 25007KT 9999NDV -SHRA FEW020/// SCT055/// 02/01 Q1004
  • 251850Z AUTO 27014KT 9999NDV -DZ FEW028/// SCT050/// BKN070/// 03/00 Q1003
  • 251820Z AUTO 29016KT 9999NDV FEW019/// SCT037/// BKN120/// 03/00 Q1003
  • 251750Z AUTO 30014G25KT 9999NDV FEW019/// BKN110/// 04/00 Q1003

TAF TAF EKRK
Valide du 25 à 18h jusqu'au 26 à 03h UTC


251723Z 2518/2603 27015KT 9999 SCT030
TEMPO 2518/2522 SHRA BKN020CB
BECMG 2600/2603 26005KT
Pas de NOTAMs connus pour ce terrain.



MET'MAP, la Météo Aéronautique d'un coup d'oeil ! - Copyright ORBIFLY Décembre 2007 - Disclaimer

ORBIFLY MET'MAP TEAM :

Programmation & Développement : Alexandra Zaïnal
Conception & Développement : Baudouin d'Aumeries
Co-Programmation & Développement : Marc-Olivier Méhu
Soutien technique & logistique : Manuel Goepfert

Contact : metmap@orbifly.com




SOURCES & CREDITS :

   NOAA